TAF KVEL
KVEL 090537Z 0906/1006 VRB03KT P6SM VCSH SCT040 BKN100 FM091500 VRB03KT 3SM -SHSNRA BR SCT014 OVC035 FM091900 12005KT 2SM -SHRASN BR SCT007 OVC020 FM100300 24007G15KT 1/2SM SN FG OVC003 FM100500 08006KT P6SM SCT008 OVC035=
METAR KVEL
WC KVEL
WS KVEL
WV KVEL